createdAt,value
2023-05-24T00:01:56.939Z,14.10
2023-05-24T00:04:25.226Z,19.80
2023-05-24T00:06:55.030Z,17.83
2023-05-24T00:09:22.021Z,18.20
2023-05-24T00:11:48.741Z,23.00
2023-05-24T00:14:15.838Z,19.83
2023-05-24T00:16:42.580Z,20.00
2023-05-24T00:19:11.299Z,17.57
2023-05-24T00:21:38.191Z,18.53
2023-05-24T00:24:04.917Z,18.53
2023-05-24T00:26:31.503Z,24.40
2023-05-24T00:28:57.967Z,22.10
2023-05-24T00:31:24.548Z,22.50
2023-05-24T00:33:51.051Z,25.20
2023-05-24T00:36:17.597Z,19.20
2023-05-24T00:38:44.095Z,22.03
2023-05-24T00:41:11.509Z,23.23
2023-05-24T00:43:38.125Z,20.63
2023-05-24T00:46:32.867Z,18.80
2023-05-24T00:49:01.383Z,19.97
2023-05-24T00:51:28.248Z,23.10
2023-05-24T00:53:55.522Z,16.13
2023-05-24T00:56:23.042Z,14.73
2023-05-24T00:58:54.466Z,16.43
2023-05-24T01:01:20.983Z,24.17
2023-05-24T01:03:48.212Z,17.30
2023-05-24T01:06:16.211Z,21.40
2023-05-24T01:08:50.122Z,19.30
2023-05-24T01:11:22.755Z,18.53
2023-05-24T01:13:58.976Z,17.07
2023-05-24T01:16:47.878Z,15.10
2023-05-24T01:19:37.673Z,22.17
2023-05-24T01:22:24.423Z,20.20
2023-05-24T01:25:03.517Z,14.23
2023-05-24T01:27:33.319Z,15.33
2023-05-24T01:30:02.125Z,15.80
2023-05-24T01:32:29.162Z,21.20
2023-05-24T01:34:55.820Z,18.33
2023-05-24T01:37:22.637Z,24.50
2023-05-24T01:39:49.539Z,16.93
2023-05-24T01:42:32.627Z,21.50
2023-05-24T01:45:05.152Z,16.20
2023-05-24T01:47:46.936Z,19.77
2023-05-24T01:50:45.556Z,17.67
2023-05-24T01:53:14.246Z,20.50
2023-05-24T01:55:42.219Z,15.30
2023-05-24T01:58:10.463Z,16.53
2023-05-24T02:00:39.311Z,18.53
2023-05-24T02:03:06.845Z,19.20
2023-05-24T02:05:33.930Z,21.30
2023-05-24T02:08:00.408Z,17.70
2023-05-24T02:10:26.923Z,21.17
2023-05-24T02:12:53.460Z,14.97
2023-05-24T02:15:20.717Z,15.70
2023-05-24T02:17:48.099Z,19.73
2023-05-24T02:20:14.689Z,17.27
2023-05-24T02:22:41.615Z,13.00
2023-05-24T02:25:08.574Z,15.73
2023-05-24T02:27:35.156Z,15.63
2023-05-24T02:30:01.637Z,15.33
2023-05-24T02:32:28.131Z,18.27
2023-05-24T02:34:54.699Z,15.23
2023-05-24T02:37:21.154Z,15.77
2023-05-24T02:39:47.704Z,15.20
2023-05-24T02:42:14.234Z,15.30
2023-05-24T02:44:42.756Z,15.13
2023-05-24T02:47:09.274Z,19.10
2023-05-24T02:49:35.784Z,13.27
2023-05-24T02:52:02.349Z,11.67
2023-05-24T02:54:28.914Z,16.17
2023-05-24T02:56:56.690Z,14.67
2023-05-24T02:59:23.716Z,22.17
2023-05-24T03:01:50.689Z,19.00
2023-05-24T03:04:17.425Z,13.70
2023-05-24T03:06:44.880Z,13.93
2023-05-24T03:09:11.721Z,15.20
2023-05-24T03:11:38.237Z,15.00
2023-05-24T03:14:06.338Z,19.00
2023-05-24T03:16:33.126Z,14.60
2023-05-24T03:19:00.361Z,14.33
2023-05-24T03:21:27.358Z,14.00
2023-05-24T03:23:54.027Z,13.87
2023-05-24T03:26:20.766Z,17.00
2023-05-24T03:28:47.720Z,19.43
2023-05-24T03:31:14.316Z,14.47
2023-05-24T03:33:40.795Z,18.53
2023-05-24T03:36:07.418Z,17.03
2023-05-24T03:38:33.908Z,16.03
2023-05-24T03:41:00.464Z,16.83
2023-05-24T03:43:26.987Z,17.70
2023-05-24T03:45:53.584Z,17.53
2023-05-24T03:48:22.777Z,18.67
2023-05-24T03:50:49.300Z,14.10
2023-05-24T03:53:15.996Z,17.07
2023-05-24T03:55:42.499Z,17.90
2023-05-24T03:58:08.998Z,15.10
2023-05-24T04:00:35.492Z,14.57
2023-05-24T04:03:02.541Z,20.37
2023-05-24T04:05:29.988Z,15.20
2023-05-24T04:07:56.785Z,10.73
2023-05-24T04:10:23.386Z,17.53
2023-05-24T04:12:50.070Z,15.03
2023-05-24T04:15:16.777Z,15.53
2023-05-24T04:17:44.624Z,13.90
2023-05-24T04:20:12.774Z,18.07
2023-05-24T04:22:39.604Z,16.70
2023-05-24T04:25:06.801Z,16.27
2023-05-24T04:27:33.398Z,17.80
2023-05-24T04:30:00.301Z,15.77
2023-05-24T04:32:30.299Z,13.17
2023-05-24T04:34:56.979Z,14.60
2023-05-24T04:37:24.664Z,13.50
2023-05-24T04:39:51.666Z,18.70
2023-05-24T04:42:18.171Z,16.77
2023-05-24T04:44:45.113Z,12.50
2023-05-24T04:47:12.893Z,20.97
2023-05-24T04:49:39.661Z,15.03
2023-05-24T04:52:07.346Z,14.53
2023-05-24T04:54:34.155Z,15.27
2023-05-24T04:57:00.681Z,16.33
2023-05-24T04:59:27.153Z,22.87
2023-05-24T05:01:53.795Z,17.93
2023-05-24T05:04:20.350Z,17.50
2023-05-24T05:06:48.315Z,20.17
2023-05-24T05:09:15.968Z,24.47
2023-05-24T05:11:42.757Z,24.30
2023-05-24T05:14:09.516Z,26.90
2023-05-24T05:16:36.724Z,19.73
2023-05-24T05:19:04.737Z,18.60
2023-05-24T05:21:34.961Z,18.73
2023-05-24T05:24:01.888Z,24.87
2023-05-24T05:26:28.909Z,25.73
2023-05-24T05:28:55.870Z,22.60
2023-05-24T05:31:22.758Z,34.53
2023-05-24T05:33:49.466Z,21.37
2023-05-24T05:36:22.194Z,25.63
2023-05-24T05:38:48.746Z,21.23
2023-05-24T05:41:15.241Z,26.13
2023-05-24T05:43:41.699Z,26.33
2023-05-24T05:46:08.265Z,29.17
2023-05-24T05:48:34.848Z,31.13
2023-05-24T05:51:01.370Z,31.23
2023-05-24T05:53:27.886Z,28.43
2023-05-24T05:55:54.459Z,24.83
2023-05-24T05:58:21.027Z,25.90
2023-05-24T06:00:47.562Z,25.80
2023-05-24T06:03:14.273Z,28.40
2023-05-24T06:05:41.917Z,24.87
2023-05-24T06:08:08.370Z,38.43
2023-05-24T06:10:34.854Z,28.37
2023-05-24T06:13:02.767Z,26.97
2023-05-24T06:15:29.372Z,40.60
2023-05-24T06:17:55.915Z,27.50
2023-05-24T06:20:23.364Z,27.67
2023-05-24T06:22:50.715Z,34.17
2023-05-24T06:25:19.271Z,39.20
2023-05-24T06:27:46.136Z,23.37
2023-05-24T06:30:13.553Z,31.33
2023-05-24T06:32:40.328Z,28.77
2023-05-24T06:35:07.968Z,42.27
2023-05-24T06:37:34.827Z,40.30
2023-05-24T06:40:01.591Z,29.57
2023-05-24T06:42:28.123Z,43.53
2023-05-24T06:44:54.619Z,29.60
2023-05-24T06:47:21.989Z,35.63
2023-05-24T06:49:49.971Z,35.17
2023-05-24T06:52:16.850Z,31.73
2023-05-24T06:54:45.412Z,34.90
2023-05-24T06:57:11.965Z,38.77
2023-05-24T06:59:38.473Z,30.53
2023-05-24T07:02:05.075Z,31.83
2023-05-24T07:04:32.370Z,31.57
2023-05-24T07:06:58.932Z,33.43
2023-05-24T07:09:25.496Z,34.27
2023-05-24T07:11:52.861Z,26.73
2023-05-24T07:14:19.413Z,28.30
2023-05-24T07:16:46.732Z,34.43
2023-05-24T07:19:13.786Z,34.90
2023-05-24T07:21:40.859Z,33.70
2023-05-24T07:24:07.513Z,25.90
2023-05-24T07:26:34.293Z,33.20
2023-05-24T07:29:00.853Z,23.50
2023-05-24T07:31:29.937Z,32.10
2023-05-24T07:33:56.471Z,24.37
2023-05-24T07:36:23.206Z,27.17
2023-05-24T07:38:49.681Z,22.37
2023-05-24T07:41:16.548Z,29.20
2023-05-24T07:43:43.121Z,30.67
2023-05-24T07:46:10.527Z,32.40
2023-05-24T07:48:37.057Z,39.07
2023-05-24T07:51:03.668Z,24.17
2023-05-24T07:53:30.234Z,29.53
2023-05-24T07:55:56.737Z,39.43
2023-05-24T07:58:23.227Z,29.77
2023-05-24T08:00:50.029Z,25.17
2023-05-24T08:03:17.849Z,31.83
2023-05-24T08:05:44.835Z,23.67
2023-05-24T08:08:11.550Z,28.13
2023-05-24T08:10:38.046Z,29.50
2023-05-24T08:13:05.682Z,27.17
2023-05-24T08:15:32.163Z,25.03
2023-05-24T08:17:58.862Z,21.30
2023-05-24T08:20:25.538Z,29.37
2023-05-24T08:22:52.077Z,37.33
2023-05-24T08:25:18.973Z,25.00
2023-05-24T08:27:45.760Z,31.33
2023-05-24T08:30:14.203Z,21.23
2023-05-24T08:32:40.967Z,26.80
2023-05-24T08:35:20.343Z,30.63
2023-05-24T08:37:49.024Z,22.63
2023-05-24T08:40:15.886Z,25.33
2023-05-24T08:42:42.492Z,24.63
2023-05-24T08:45:11.902Z,23.53
2023-05-24T08:47:39.001Z,24.70
2023-05-24T08:50:07.145Z,19.20
2023-05-24T08:52:34.408Z,23.33
2023-05-24T08:55:04.851Z,22.40
2023-05-24T08:57:39.242Z,21.07
2023-05-24T09:00:09.442Z,28.00
2023-05-24T09:02:38.589Z,31.40
2023-05-24T09:05:08.428Z,26.47
2023-05-24T09:07:35.629Z,28.17
2023-05-24T09:10:05.864Z,37.70
2023-05-24T09:12:38.189Z,30.83
2023-05-24T09:15:07.038Z,28.80
2023-05-24T09:17:35.854Z,31.87
2023-05-24T09:20:06.782Z,28.77
2023-05-24T09:22:36.811Z,28.20
2023-05-24T09:25:06.041Z,31.70
2023-05-24T09:27:34.459Z,28.27
2023-05-24T09:30:03.370Z,28.83
2023-05-24T09:32:31.173Z,25.20
2023-05-24T09:34:59.664Z,30.53
2023-05-24T09:37:32.131Z,23.80
2023-05-24T09:39:59.503Z,20.73
2023-05-24T09:42:28.368Z,35.33
2023-05-24T09:45:09.799Z,31.53
2023-05-24T09:47:37.841Z,28.63
2023-05-24T09:50:07.093Z,30.47
2023-05-24T09:52:37.375Z,28.40
2023-05-24T09:55:18.271Z,24.03
2023-05-24T09:58:05.947Z,25.13
2023-05-24T10:00:40.919Z,20.80
2023-05-24T10:03:10.949Z,19.60
2023-05-24T10:05:38.664Z,23.10
2023-05-24T10:08:05.324Z,22.23
2023-05-24T10:10:33.497Z,24.50
2023-05-24T10:13:01.563Z,21.03
2023-05-24T10:15:29.001Z,20.33
2023-05-24T10:17:56.875Z,22.50
2023-05-24T10:20:24.646Z,23.33
2023-05-24T10:23:10.743Z,26.33
2023-05-24T10:25:44.628Z,20.17
2023-05-24T10:28:14.988Z,19.47
2023-05-24T10:30:59.447Z,20.40
2023-05-24T10:33:26.489Z,22.03
2023-05-24T10:35:54.095Z,26.10
2023-05-24T10:38:23.821Z,23.10
2023-05-24T10:40:50.990Z,23.87
2023-05-24T10:43:18.131Z,19.47
2023-05-24T10:45:49.535Z,23.80
2023-05-24T10:48:16.801Z,25.37
2023-05-24T10:50:44.274Z,20.73
2023-05-24T10:53:15.838Z,24.70
2023-05-24T10:56:04.281Z,18.33
2023-05-24T10:58:33.857Z,17.80
2023-05-24T11:01:00.405Z,22.43
2023-05-24T11:03:33.544Z,19.40
2023-05-24T11:06:00.297Z,19.77
2023-05-24T11:08:35.516Z,23.47
2023-05-24T11:13:47.803Z,26.97
2023-05-24T11:16:40.487Z,20.60
2023-05-24T11:19:21.007Z,21.80
2023-05-24T11:21:50.050Z,18.90
2023-05-24T11:24:18.156Z,20.07
2023-05-24T11:26:45.645Z,21.57
2023-05-24T11:29:21.156Z,19.40
2023-05-24T11:31:57.759Z,18.87
2023-05-24T11:34:24.711Z,18.10
2023-05-24T11:36:53.194Z,18.77
2023-05-24T11:39:19.731Z,22.37
2023-05-24T11:41:47.635Z,18.30
2023-05-24T11:44:21.499Z,20.93
2023-05-24T11:46:48.065Z,23.30
2023-05-24T11:49:17.966Z,21.90
2023-05-24T11:51:44.516Z,18.20
2023-05-24T11:54:11.873Z,21.00
2023-05-24T11:56:38.784Z,20.80
2023-05-24T11:59:25.643Z,25.53
2023-05-24T12:02:03.703Z,18.53
2023-05-24T12:04:31.330Z,22.23
2023-05-24T12:06:58.318Z,17.33
2023-05-24T12:09:25.343Z,22.93
2023-05-24T12:11:53.057Z,21.57
2023-05-24T12:14:31.031Z,19.37
2023-05-24T12:16:57.972Z,20.53
2023-05-24T12:21:57.728Z,24.80
2023-05-24T12:24:26.221Z,19.80
2023-05-24T12:26:57.463Z,23.83
2023-05-24T12:29:24.054Z,21.30
2023-05-24T12:31:50.751Z,25.17
2023-05-24T12:34:20.813Z,21.70
2023-05-24T12:36:48.094Z,17.77
2023-05-24T12:39:18.129Z,17.60
2023-05-24T12:41:45.439Z,18.30
2023-05-24T12:44:12.483Z,20.77
2023-05-24T12:46:39.165Z,15.77
2023-05-24T12:49:05.936Z,24.53
2023-05-24T12:51:32.444Z,26.80
2023-05-24T12:53:59.019Z,18.80
2023-05-24T12:56:27.429Z,24.17
2023-05-24T12:58:55.796Z,18.07
2023-05-24T13:01:22.475Z,16.47
2023-05-24T13:03:49.168Z,16.67
2023-05-24T13:06:15.955Z,17.73
2023-05-24T13:08:42.502Z,16.10
2023-05-24T13:11:09.086Z,21.30
2023-05-24T13:13:35.741Z,21.67
2023-05-24T13:16:02.885Z,24.47
2023-05-24T13:18:30.372Z,20.73
2023-05-24T13:21:00.352Z,18.83
2023-05-24T13:23:27.927Z,24.93
2023-05-24T13:25:54.617Z,27.27
2023-05-24T13:28:22.230Z,17.90
2023-05-24T13:30:48.874Z,16.90
2023-05-24T13:33:15.963Z,24.03
2023-05-24T13:35:42.775Z,24.40
2023-05-24T13:38:09.654Z,22.80
2023-05-24T13:40:37.406Z,21.37
2023-05-24T13:43:04.843Z,19.67
2023-05-24T13:45:33.195Z,15.87
2023-05-24T13:48:06.217Z,31.90
2023-05-24T13:50:35.110Z,25.70
2023-05-24T13:53:02.935Z,27.20
2023-05-24T13:55:31.463Z,21.23
2023-05-24T13:57:58.369Z,21.97
2023-05-24T14:00:24.973Z,19.77
2023-05-24T14:02:52.067Z,17.80
2023-05-24T14:05:27.486Z,22.13
2023-05-24T14:07:55.247Z,20.93
2023-05-24T14:10:22.057Z,25.10
2023-05-24T14:12:59.491Z,26.90
2023-05-24T14:15:26.481Z,28.63
2023-05-24T14:17:53.118Z,20.00
2023-05-24T14:20:19.758Z,20.43
2023-05-24T14:22:46.879Z,20.30
2023-05-24T14:25:13.993Z,24.97
2023-05-24T14:27:41.252Z,24.73
2023-05-24T14:30:08.374Z,23.47
2023-05-24T14:32:34.906Z,17.03
2023-05-24T14:35:01.813Z,17.47
2023-05-24T14:37:28.317Z,24.83
2023-05-24T14:39:55.167Z,19.20
2023-05-24T14:42:21.786Z,17.67
2023-05-24T14:44:48.322Z,20.17
2023-05-24T14:47:14.871Z,26.50
2023-05-24T14:49:41.380Z,24.60
2023-05-24T14:52:07.892Z,22.43
2023-05-24T14:54:34.348Z,23.80
2023-05-24T14:57:00.956Z,20.70
2023-05-24T14:59:27.544Z,19.77
2023-05-24T15:01:54.049Z,18.50
2023-05-24T15:04:20.548Z,27.40
2023-05-24T15:06:47.225Z,20.70
2023-05-24T15:09:13.842Z,25.80
2023-05-24T15:11:40.347Z,20.73
2023-05-24T15:14:06.848Z,25.20
2023-05-24T15:16:33.421Z,22.90
2023-05-24T15:19:01.038Z,22.00
2023-05-24T15:21:27.614Z,24.03
2023-05-24T15:23:54.114Z,22.67
2023-05-24T15:26:21.206Z,22.13
2023-05-24T15:28:48.204Z,21.47
2023-05-24T15:31:14.780Z,21.23
2023-05-24T15:33:41.577Z,20.63
2023-05-24T15:36:08.219Z,16.90
2023-05-24T15:38:35.015Z,16.93
2023-05-24T15:41:01.487Z,20.77
2023-05-24T15:43:29.808Z,22.60
2023-05-24T15:45:57.485Z,25.60
2023-05-24T15:48:24.058Z,23.07
2023-05-24T15:51:06.557Z,18.93
2023-05-24T15:53:37.220Z,26.00
2023-05-24T15:56:03.901Z,25.57
2023-05-24T15:58:30.616Z,21.10
2023-05-24T16:00:57.140Z,20.90
2023-05-24T16:03:23.782Z,23.47
2023-05-24T16:05:50.609Z,28.50
2023-05-24T16:08:17.265Z,21.23
2023-05-24T16:10:44.805Z,19.50
2023-05-24T16:13:11.794Z,26.03
2023-05-24T16:15:40.886Z,18.60
2023-05-24T16:18:08.381Z,20.67
2023-05-24T16:20:35.202Z,21.27
2023-05-24T16:23:03.123Z,21.67
2023-05-24T16:25:29.614Z,24.07
2023-05-24T16:27:56.459Z,19.30
2023-05-24T16:30:23.000Z,21.40
2023-05-24T16:32:49.588Z,19.10
2023-05-24T16:35:16.434Z,28.03
2023-05-24T16:37:43.016Z,20.90
2023-05-24T16:40:10.034Z,24.63
2023-05-24T16:42:36.574Z,28.40
2023-05-24T16:45:03.165Z,24.23
2023-05-24T16:47:30.088Z,27.83
2023-05-24T16:49:56.808Z,19.37
2023-05-24T16:52:23.344Z,19.87
2023-05-24T16:54:49.936Z,24.73
2023-05-24T16:57:17.045Z,20.17
2023-05-24T16:59:45.124Z,25.23
2023-05-24T17:02:11.586Z,22.63
2023-05-24T17:04:38.090Z,26.70
2023-05-24T17:07:04.743Z,19.70
2023-05-24T17:09:31.320Z,19.43
2023-05-24T17:11:57.849Z,22.60
2023-05-24T17:14:24.375Z,20.80
2023-05-24T17:16:50.877Z,21.73
2023-05-24T17:19:19.392Z,21.40
2023-05-24T17:21:46.036Z,17.90
2023-05-24T17:24:12.535Z,20.50
2023-05-24T17:26:40.374Z,22.10
2023-05-24T17:29:06.890Z,20.20
2023-05-24T17:31:33.555Z,18.03
2023-05-24T17:34:00.867Z,18.97
2023-05-24T17:36:27.483Z,26.90
2023-05-24T17:38:53.949Z,26.70
2023-05-24T17:41:20.557Z,21.70
2023-05-24T17:43:47.006Z,20.70
2023-05-24T17:46:14.165Z,23.07
2023-05-24T17:48:41.904Z,22.60
2023-05-24T17:51:09.731Z,24.47
2023-05-24T17:53:37.489Z,16.10
2023-05-24T17:56:05.264Z,29.77
2023-05-24T17:58:35.687Z,24.50
2023-05-24T18:01:08.615Z,20.00
2023-05-24T18:03:40.655Z,24.47
2023-05-24T18:06:07.966Z,19.13
2023-05-24T18:08:37.313Z,21.43
2023-05-24T18:11:08.216Z,18.53
2023-05-24T18:13:36.580Z,26.83
2023-05-24T18:16:03.503Z,19.50
2023-05-24T18:18:30.291Z,21.83
2023-05-24T18:20:56.758Z,19.37
2023-05-24T18:23:23.261Z,29.97
2023-05-24T18:25:49.984Z,18.67
2023-05-24T18:28:16.552Z,18.10
2023-05-24T18:30:43.089Z,18.20
2023-05-24T18:33:09.774Z,22.90
2023-05-24T18:35:36.367Z,21.53
2023-05-24T18:38:03.843Z,22.43
2023-05-24T18:40:30.640Z,37.20
2023-05-24T18:42:57.161Z,52.67
2023-05-24T18:45:23.683Z,52.33
2023-05-24T18:47:50.294Z,41.30
2023-05-24T18:50:17.114Z,39.70
2023-05-24T18:52:43.764Z,30.70
2023-05-24T18:55:13.231Z,28.27
2023-05-24T18:57:39.741Z,22.83
2023-05-24T19:00:07.197Z,23.37
2023-05-24T19:02:39.035Z,17.67
2023-05-24T19:05:06.913Z,25.63
2023-05-24T19:07:34.520Z,24.20
2023-05-24T19:10:01.075Z,24.10
2023-05-24T19:12:27.562Z,25.53
2023-05-24T19:14:54.105Z,27.23
2023-05-24T19:17:20.728Z,24.93
2023-05-24T19:19:48.042Z,26.53
2023-05-24T19:22:14.555Z,43.80
2023-05-24T19:24:41.413Z,24.80
2023-05-24T19:27:08.212Z,30.80
2023-05-24T19:29:36.333Z,28.93
2023-05-24T19:32:03.274Z,23.93
2023-05-24T19:34:31.889Z,23.70
2023-05-24T19:36:58.500Z,22.23
2023-05-24T19:39:25.272Z,20.20
2023-05-24T19:41:52.677Z,22.83
2023-05-24T19:44:19.490Z,27.13
2023-05-24T19:46:46.073Z,21.60
2023-05-24T19:49:12.808Z,17.10
2023-05-24T19:51:39.370Z,21.40
2023-05-24T19:54:09.075Z,19.40
2023-05-24T19:56:36.224Z,24.20
2023-05-24T19:59:02.860Z,22.83
2023-05-24T20:01:29.367Z,17.70
2023-05-24T20:03:56.135Z,21.77
2023-05-24T20:06:22.914Z,19.03
2023-05-24T20:08:49.609Z,29.70
2023-05-24T20:11:16.128Z,22.43
2023-05-24T20:13:42.635Z,22.13
2023-05-24T20:16:09.258Z,19.40
2023-05-24T20:18:35.937Z,17.10
2023-05-24T20:21:02.993Z,17.33
2023-05-24T20:23:30.621Z,17.03
2023-05-24T20:25:57.700Z,16.87
2023-05-24T20:28:30.815Z,17.60
2023-05-24T20:30:58.966Z,21.60
2023-05-24T20:33:25.772Z,21.93
2023-05-24T20:35:54.022Z,19.37
2023-05-24T20:38:20.715Z,16.97
2023-05-24T20:40:47.228Z,24.63
2023-05-24T20:43:13.878Z,22.90
2023-05-24T20:45:40.576Z,21.23
2023-05-24T20:48:07.199Z,17.40
2023-05-24T20:50:33.725Z,17.97
2023-05-24T20:53:00.291Z,15.50
2023-05-24T20:55:27.193Z,16.60
2023-05-24T20:57:54.191Z,18.63
2023-05-24T21:00:21.184Z,15.27
2023-05-24T21:02:47.957Z,18.73
2023-05-24T21:05:14.854Z,18.43
2023-05-24T21:07:41.584Z,15.97
2023-05-24T21:10:09.313Z,15.47
2023-05-24T21:12:35.777Z,17.33
2023-05-24T21:15:02.309Z,14.37
2023-05-24T21:17:28.801Z,13.37
2023-05-24T21:19:55.404Z,15.70
2023-05-24T21:22:22.020Z,17.00
2023-05-24T21:24:48.599Z,14.23
2023-05-24T21:27:15.464Z,16.03
2023-05-24T21:29:42.020Z,15.30
2023-05-24T21:32:08.522Z,15.57
2023-05-24T21:34:36.464Z,16.00
2023-05-24T21:37:04.868Z,16.63
2023-05-24T21:39:32.564Z,20.33
2023-05-24T21:41:59.031Z,16.80
2023-05-24T21:44:25.571Z,13.07
2023-05-24T21:46:52.243Z,15.03
2023-05-24T21:49:19.952Z,13.07
2023-05-24T21:51:46.686Z,14.97
2023-05-24T21:54:13.129Z,18.37
2023-05-24T21:56:39.660Z,16.20
2023-05-24T21:59:06.127Z,15.20
2023-05-24T22:01:32.605Z,18.43
2023-05-24T22:03:59.344Z,16.47
2023-05-24T22:06:26.179Z,18.50
2023-05-24T22:08:52.700Z,18.80
2023-05-24T22:11:19.338Z,17.27
2023-05-24T22:13:45.798Z,15.50
2023-05-24T22:16:12.487Z,18.47
2023-05-24T22:18:39.465Z,19.13
2023-05-24T22:21:06.008Z,14.40
2023-05-24T22:23:32.556Z,15.23
2023-05-24T22:25:59.091Z,14.43
2023-05-24T22:28:26.057Z,18.70
2023-05-24T22:30:52.633Z,15.77
2023-05-24T22:33:20.007Z,15.93
2023-05-24T22:35:46.716Z,18.03
2023-05-24T22:38:13.239Z,15.83
2023-05-24T22:40:42.138Z,15.30
2023-05-24T22:43:08.967Z,16.67
2023-05-24T22:45:35.452Z,15.33
2023-05-24T22:48:03.410Z,15.20
2023-05-24T22:50:30.075Z,18.00
2023-05-24T22:52:56.758Z,12.43
2023-05-24T22:55:23.913Z,16.83
2023-05-24T22:57:50.756Z,17.97
2023-05-24T23:00:17.550Z,21.70
2023-05-24T23:02:44.137Z,17.77
2023-05-24T23:05:11.508Z,17.20
2023-05-24T23:07:39.670Z,14.50
2023-05-24T23:10:06.730Z,18.83
2023-05-24T23:12:33.290Z,19.47
2023-05-24T23:14:59.878Z,18.90
2023-05-24T23:17:26.409Z,15.87
2023-05-24T23:19:52.989Z,18.63
2023-05-24T23:22:19.604Z,17.90
2023-05-24T23:24:49.445Z,17.30
2023-05-24T23:27:15.975Z,16.60
2023-05-24T23:29:42.609Z,17.43
2023-05-24T23:32:09.871Z,15.67
2023-05-24T23:34:37.205Z,12.60
2023-05-24T23:37:04.669Z,17.37
2023-05-24T23:39:31.334Z,14.33
2023-05-24T23:41:57.921Z,15.97
2023-05-24T23:44:25.537Z,19.27
2023-05-24T23:46:52.935Z,21.00
2023-05-24T23:49:20.178Z,19.23
2023-05-24T23:51:46.791Z,18.23
2023-05-24T23:54:16.196Z,18.20
2023-05-24T23:56:45.516Z,14.20
2023-05-24T23:59:11.985Z,15.07
